sensor_id;sensor_type;location;lat;lon;timestamp;P1;P2;P0
30713;PMS7003;17465;47.934;33.430;2023-03-04T00:00:26;29.25;26.75;16.75
30713;PMS7003;17465;47.934;33.430;2023-03-04T00:02:57;30.50;23.25;14.25
30713;PMS7003;17465;47.934;33.430;2023-03-04T00:05:27;32.00;28.25;16.00
30713;PMS7003;17465;47.934;33.430;2023-03-04T00:07:57;24.75;23.75;14.00
30713;PMS7003;17465;47.934;33.430;2023-03-04T00:10:28;26.75;24.25;14.50
30713;PMS7003;17465;47.934;33.430;2023-03-04T00:12:59;29.00;27.00;16.25
30713;PMS7003;17465;47.934;33.430;2023-03-04T00:15:30;40.75;35.25;16.00
30713;PMS7003;17465;47.934;33.430;2023-03-04T00:18:01;24.75;20.00;11.25
30713;PMS7003;17465;47.934;33.430;2023-03-04T00:20:32;29.25;28.00;15.00
30713;PMS7003;17465;47.934;33.430;2023-03-04T00:23:02;29.00;27.00;16.25
30713;PMS7003;17465;47.934;33.430;2023-03-04T00:25:33;25.75;25.75;12.75
30713;PMS7003;17465;47.934;33.430;2023-03-04T00:28:04;31.25;29.00;18.00
30713;PMS7003;17465;47.934;33.430;2023-03-04T00:30:34;27.25;27.25;16.00
30713;PMS7003;17465;47.934;33.430;2023-03-04T00:33:05;23.00;22.25;12.00
30713;PMS7003;17465;47.934;33.430;2023-03-04T00:35:35;36.00;31.50;17.50
30713;PMS7003;17465;47.934;33.430;2023-03-04T00:38:06;27.50;27.50;14.50
30713;PMS7003;17465;47.934;33.430;2023-03-04T00:40:37;24.00;23.50;15.00
30713;PMS7003;17465;47.934;33.430;2023-03-04T00:43:08;24.00;23.50;14.50
30713;PMS7003;17465;47.934;33.430;2023-03-04T00:45:40;26.25;22.00;14.25
30713;PMS7003;17465;47.934;33.430;2023-03-04T00:48:11;30.50;25.25;12.75
30713;PMS7003;17465;47.934;33.430;2023-03-04T00:50:42;26.50;26.25;15.25
30713;PMS7003;17465;47.934;33.430;2023-03-04T00:53:12;27.00;26.50;12.75
30713;PMS7003;17465;47.934;33.430;2023-03-04T00:55:43;29.75;28.00;18.25
30713;PMS7003;17465;47.934;33.430;2023-03-04T00:58:14;29.00;29.00;14.75
30713;PMS7003;17465;47.934;33.430;2023-03-04T01:00:45;35.50;32.00;18.75
30713;PMS7003;17465;47.934;33.430;2023-03-04T01:03:16;28.75;23.75;15.00
30713;PMS7003;17465;47.934;33.430;2023-03-04T01:05:47;26.00;24.25;13.00
30713;PMS7003;17465;47.934;33.430;2023-03-04T01:08:18;24.25;20.75;13.00
30713;PMS7003;17465;47.934;33.430;2023-03-04T01:10:49;27.00;23.75;12.25
30713;PMS7003;17465;47.934;33.430;2023-03-04T01:13:20;27.25;23.25;14.00
30713;PMS7003;17465;47.934;33.430;2023-03-04T01:15:50;27.50;26.00;14.00
30713;PMS7003;17465;47.934;33.430;2023-03-04T01:18:21;25.75;23.75;12.75
30713;PMS7003;17465;47.934;33.430;2023-03-04T01:20:52;26.00;25.75;14.50
30713;PMS7003;17465;47.934;33.430;2023-03-04T01:23:22;28.75;28.25;16.75
30713;PMS7003;17465;47.934;33.430;2023-03-04T01:25:53;27.50;24.00;14.00
30713;PMS7003;17465;47.934;33.430;2023-03-04T01:28:24;25.75;23.25;13.75
30713;PMS7003;17465;47.934;33.430;2023-03-04T01:30:54;25.75;20.00;11.75
30713;PMS7003;17465;47.934;33.430;2023-03-04T01:33:25;31.50;25.00;14.00
30713;PMS7003;17465;47.934;33.430;2023-03-04T01:35:56;28.50;27.25;15.50
30713;PMS7003;17465;47.934;33.430;2023-03-04T01:38:26;27.75;26.00;16.25
30713;PMS7003;17465;47.934;33.430;2023-03-04T01:40:57;35.25;29.50;17.00
30713;PMS7003;17465;47.934;33.430;2023-03-04T01:43:28;29.25;24.75;14.25
30713;PMS7003;17465;47.934;33.430;2023-03-04T01:45:59;31.25;27.25;15.25
30713;PMS7003;17465;47.934;33.430;2023-03-04T01:48:33;30.50;29.00;17.75
30713;PMS7003;17465;47.934;33.430;2023-03-04T01:51:05;29.25;26.25;14.75
30713;PMS7003;17465;47.934;33.430;2023-03-04T01:53:37;25.25;24.25;13.50
30713;PMS7003;17465;47.934;33.430;2023-03-04T01:56:14;28.50;20.00;10.50
30713;PMS7003;17465;47.934;33.430;2023-03-04T01:59:11;26.75;25.25;15.50
30713;PMS7003;17465;47.934;33.430;2023-03-04T02:01:54;26.50;25.50;15.50
30713;PMS7003;17465;47.934;33.430;2023-03-04T02:04:28;34.00;30.00;13.50
30713;PMS7003;17465;47.934;33.430;2023-03-04T02:07:03;23.00;23.00;14.00
30713;PMS7003;17465;47.934;33.430;2023-03-04T02:09:38;25.00;25.00;15.25
30713;PMS7003;17465;47.934;33.430;2023-03-04T02:12:08;28.75;28.00;14.00
30713;PMS7003;17465;47.934;33.430;2023-03-04T02:14:44;31.75;26.25;12.75
30713;PMS7003;17465;47.934;33.430;2023-03-04T02:17:15;29.75;26.50;13.25
30713;PMS7003;17465;47.934;33.430;2023-03-04T02:19:48;31.75;25.50;13.50
30713;PMS7003;17465;47.934;33.430;2023-03-04T02:22:19;33.50;30.75;13.25
30713;PMS7003;17465;47.934;33.430;2023-03-04T02:24:52;31.75;28.50;13.25
30713;PMS7003;17465;47.934;33.430;2023-03-04T02:27:25;39.50;28.25;12.50
30713;PMS7003;17465;47.934;33.430;2023-03-04T02:29:56;31.50;31.50;15.75
30713;PMS7003;17465;47.934;33.430;2023-03-04T02:32:27;29.25;27.50;12.00
30713;PMS7003;17465;47.934;33.430;2023-03-04T02:34:57;28.75;24.25;12.50
30713;PMS7003;17465;47.934;33.430;2023-03-04T02:37:30;32.75;25.75;12.25
30713;PMS7003;17465;47.934;33.430;2023-03-04T02:40:00;26.25;22.75;13.25
30713;PMS7003;17465;47.934;33.430;2023-03-04T02:42:31;37.25;33.50;17.75
30713;PMS7003;17465;47.934;33.430;2023-03-04T02:45:02;27.50;24.00;12.00
30713;PMS7003;17465;47.934;33.430;2023-03-04T02:47:36;32.25;28.25;13.50
30713;PMS7003;17465;47.934;33.430;2023-03-04T02:50:07;30.50;27.25;14.75
30713;PMS7003;17465;47.934;33.430;2023-03-04T02:52:38;31.25;28.25;13.50
30713;PMS7003;17465;47.934;33.430;2023-03-04T02:55:09;33.75;28.00;9.50
30713;PMS7003;17465;47.934;33.430;2023-03-04T02:57:40;25.00;21.50;5.50
30713;PMS7003;17465;47.934;33.430;2023-03-04T03:00:10;29.50;28.00;12.25
30713;PMS7003;17465;47.934;33.430;2023-03-04T03:02:42;28.50;25.75;14.50
30713;PMS7003;17465;47.934;33.430;2023-03-04T03:05:13;35.25;34.25;19.25
30713;PMS7003;17465;47.934;33.430;2023-03-04T03:07:46;32.25;28.00;15.00
30713;PMS7003;17465;47.934;33.430;2023-03-04T03:10:16;24.00;24.00;11.25
30713;PMS7003;17465;47.934;33.430;2023-03-04T03:12:47;41.00;34.75;14.75
30713;PMS7003;17465;47.934;33.430;2023-03-04T03:15:22;32.75;31.50;16.75
30713;PMS7003;17465;47.934;33.430;2023-03-04T03:18:18;36.00;30.75;17.00
30713;PMS7003;17465;47.934;33.430;2023-03-04T03:20:48;42.25;37.75;19.50
30713;PMS7003;17465;47.934;33.430;2023-03-04T03:23:19;38.00;36.75;21.00
30713;PMS7003;17465;47.934;33.430;2023-03-04T03:25:49;41.25;37.50;18.75
30713;PMS7003;17465;47.934;33.430;2023-03-04T03:28:20;38.00;33.75;19.00
30713;PMS7003;17465;47.934;33.430;2023-03-04T03:30:51;30.50;30.50;17.75
30713;PMS7003;17465;47.934;33.430;2023-03-04T03:33:21;33.25;27.75;11.50
30713;PMS7003;17465;47.934;33.430;2023-03-04T03:35:52;35.75;31.25;18.25
30713;PMS7003;17465;47.934;33.430;2023-03-04T03:38:23;39.50;35.00;16.50
30713;PMS7003;17465;47.934;33.430;2023-03-04T03:40:53;33.00;29.00;15.00
30713;PMS7003;17465;47.934;33.430;2023-03-04T03:43:24;34.00;33.00;22.00
30713;PMS7003;17465;47.934;33.430;2023-03-04T03:45:55;38.75;33.00;17.75
30713;PMS7003;17465;47.934;33.430;2023-03-04T03:48:25;45.00;39.75;21.50
30713;PMS7003;17465;47.934;33.430;2023-03-04T03:50:56;40.25;38.50;21.00
30713;PMS7003;17465;47.934;33.430;2023-03-04T03:53:27;38.25;30.75;13.00
30713;PMS7003;17465;47.934;33.430;2023-03-04T03:55:57;44.50;41.00;26.50
30713;PMS7003;17465;47.934;33.430;2023-03-04T03:58:28;52.00;44.75;27.00
30713;PMS7003;17465;47.934;33.430;2023-03-04T04:00:58;43.50;37.75;18.25
30713;PMS7003;17465;47.934;33.430;2023-03-04T04:03:29;32.75;30.00;19.25
30713;PMS7003;17465;47.934;33.430;2023-03-04T04:06:00;40.75;39.00;19.75
30713;PMS7003;17465;47.934;33.430;2023-03-04T04:08:31;36.75;35.25;21.00
30713;PMS7003;17465;47.934;33.430;2023-03-04T04:11:01;51.00;42.00;22.75
30713;PMS7003;17465;47.934;33.430;2023-03-04T04:13:32;42.25;38.00;20.75
30713;PMS7003;17465;47.934;33.430;2023-03-04T04:16:04;42.25;40.50;24.75
30713;PMS7003;17465;47.934;33.430;2023-03-04T04:18:35;50.00;42.75;25.75
30713;PMS7003;17465;47.934;33.430;2023-03-04T04:21:06;41.00;38.00;22.00
30713;PMS7003;17465;47.934;33.430;2023-03-04T04:23:37;39.50;37.25;21.25
30713;PMS7003;17465;47.934;33.430;2023-03-04T04:26:08;38.50;35.75;14.75
30713;PMS7003;17465;47.934;33.430;2023-03-04T04:28:38;38.25;36.75;23.50
30713;PMS7003;17465;47.934;33.430;2023-03-04T04:31:09;47.25;41.25;24.50
30713;PMS7003;17465;47.934;33.430;2023-03-04T04:33:40;40.25;33.25;15.75
30713;PMS7003;17465;47.934;33.430;2023-03-04T04:36:16;44.00;36.00;22.25
30713;PMS7003;17465;47.934;33.430;2023-03-04T04:38:44;43.75;38.00;20.25
30713;PMS7003;17465;47.934;33.430;2023-03-04T04:41:22;41.75;38.50;21.50
30713;PMS7003;17465;47.934;33.430;2023-03-04T04:43:54;37.75;37.75;20.25
30713;PMS7003;17465;47.934;33.430;2023-03-04T04:46:25;40.75;37.50;20.75
30713;PMS7003;17465;47.934;33.430;2023-03-04T04:48:56;44.75;39.25;22.25
30713;PMS7003;17465;47.934;33.430;2023-03-04T04:51:26;47.25;37.25;19.75
30713;PMS7003;17465;47.934;33.430;2023-03-04T04:53:58;49.75;42.00;21.25
30713;PMS7003;17465;47.934;33.430;2023-03-04T04:56:29;44.25;39.00;20.75
30713;PMS7003;17465;47.934;33.430;2023-03-04T04:59:02;39.25;38.75;24.00
30713;PMS7003;17465;47.934;33.430;2023-03-04T05:01:33;40.50;39.75;21.00
30713;PMS7003;17465;47.934;33.430;2023-03-04T05:04:04;42.00;39.00;21.50
30713;PMS7003;17465;47.934;33.430;2023-03-04T05:06:35;46.00;38.25;19.50
30713;PMS7003;17465;47.934;33.430;2023-03-04T05:09:06;33.50;30.75;16.00
30713;PMS7003;17465;47.934;33.430;2023-03-04T05:11:37;48.50;38.25;18.50
30713;PMS7003;17465;47.934;33.430;2023-03-04T05:14:08;43.50;37.75;21.00
30713;PMS7003;17465;47.934;33.430;2023-03-04T05:16:38;49.00;38.75;23.00
30713;PMS7003;17465;47.934;33.430;2023-03-04T05:19:08;45.25;39.50;23.00
30713;PMS7003;17465;47.934;33.430;2023-03-04T05:21:39;37.25;34.00;18.50
30713;PMS7003;17465;47.934;33.430;2023-03-04T05:24:10;34.75;27.25;16.50
30713;PMS7003;17465;47.934;33.430;2023-03-04T05:26:41;51.50;45.00;24.00
30713;PMS7003;17465;47.934;33.430;2023-03-04T05:29:11;45.75;38.50;26.00
30713;PMS7003;17465;47.934;33.430;2023-03-04T05:31:41;38.00;36.25;22.50
30713;PMS7003;17465;47.934;33.430;2023-03-04T05:34:13;32.00;29.25;12.00
30713;PMS7003;17465;47.934;33.430;2023-03-04T05:36:43;33.25;29.50;18.75
30713;PMS7003;17465;47.934;33.430;2023-03-04T05:39:14;17.75;14.00;0.25
30713;PMS7003;17465;47.934;33.430;2023-03-04T05:41:45;40.75;37.50;19.50
30713;PMS7003;17465;47.934;33.430;2023-03-04T05:44:17;43.25;38.75;23.75
30713;PMS7003;17465;47.934;33.430;2023-03-04T05:46:48;41.25;36.50;12.75
30713;PMS7003;17465;47.934;33.430;2023-03-04T05:49:19;32.50;31.25;16.50
30713;PMS7003;17465;47.934;33.430;2023-03-04T05:51:49;49.75;42.50;22.75
30713;PMS7003;17465;47.934;33.430;2023-03-04T05:54:19;63.50;51.75;29.50
30713;PMS7003;17465;47.934;33.430;2023-03-04T05:56:53;38.00;36.50;16.50
30713;PMS7003;17465;47.934;33.430;2023-03-04T05:59:24;62.50;53.75;31.50
30713;PMS7003;17465;47.934;33.430;2023-03-04T06:01:55;41.50;38.00;21.25
30713;PMS7003;17465;47.934;33.430;2023-03-04T06:04:26;35.75;30.50;14.75
30713;PMS7003;17465;47.934;33.430;2023-03-04T06:06:57;41.75;38.25;17.25
30713;PMS7003;17465;47.934;33.430;2023-03-04T06:09:28;32.75;28.00;14.25
30713;PMS7003;17465;47.934;33.430;2023-03-04T06:11:59;30.25;25.25;12.50
30713;PMS7003;17465;47.934;33.430;2023-03-04T06:14:30;30.75;30.75;16.75
30713;PMS7003;17465;47.934;33.430;2023-03-04T06:17:03;41.50;35.75;21.00
30713;PMS7003;17465;47.934;33.430;2023-03-04T06:19:36;29.75;28.50;15.00
30713;PMS7003;17465;47.934;33.430;2023-03-04T06:22:08;42.00;39.50;22.25
30713;PMS7003;17465;47.934;33.430;2023-03-04T06:24:39;33.50;32.75;17.50
30713;PMS7003;17465;47.934;33.430;2023-03-04T06:27:12;39.00;37.50;21.50
30713;PMS7003;17465;47.934;33.430;2023-03-04T06:29:43;41.25;32.50;14.00
30713;PMS7003;17465;47.934;33.430;2023-03-04T06:32:31;44.25;36.75;19.25
30713;PMS7003;17465;47.934;33.430;2023-03-04T06:35:14;51.20;45.00;34.20
30713;PMS7003;17465;47.934;33.430;2023-03-04T06:37:45;25.25;22.50;6.50
30713;PMS7003;17465;47.934;33.430;2023-03-04T06:40:17;39.25;32.50;18.50
30713;PMS7003;17465;47.934;33.430;2023-03-04T06:43:01;36.25;28.75;15.00
30713;PMS7003;17465;47.934;33.430;2023-03-04T06:45:32;29.25;28.00;14.75
30713;PMS7003;17465;47.934;33.430;2023-03-04T06:48:08;38.75;36.50;20.75
30713;PMS7003;17465;47.934;33.430;2023-03-04T06:50:39;28.25;25.75;17.00
30713;PMS7003;17465;47.934;33.430;2023-03-04T06:53:11;37.75;33.50;16.50
30713;PMS7003;17465;47.934;33.430;2023-03-04T06:55:43;37.50;33.25;18.75
30713;PMS7003;17465;47.934;33.430;2023-03-04T06:58:15;38.75;35.00;19.50
30713;PMS7003;17465;47.934;33.430;2023-03-04T07:00:46;31.50;28.00;16.00
30713;PMS7003;17465;47.934;33.430;2023-03-04T07:03:16;35.50;33.50;21.50
30713;PMS7003;17465;47.934;33.430;2023-03-04T07:05:47;35.00;35.00;21.00
30713;PMS7003;17465;47.934;33.430;2023-03-04T07:08:19;34.25;32.75;22.75
30713;PMS7003;17465;47.934;33.430;2023-03-04T07:10:50;31.00;28.00;16.00
30713;PMS7003;17465;47.934;33.430;2023-03-04T07:13:21;27.25;27.25;15.25
30713;PMS7003;17465;47.934;33.430;2023-03-04T07:15:52;36.50;34.25;15.50
30713;PMS7003;17465;47.934;33.430;2023-03-04T07:18:23;42.00;35.75;21.50
30713;PMS7003;17465;47.934;33.430;2023-03-04T07:20:54;32.25;31.50;17.00
30713;PMS7003;17465;47.934;33.430;2023-03-04T07:23:24;41.50;32.25;19.00
30713;PMS7003;17465;47.934;33.430;2023-03-04T07:25:55;36.00;29.25;18.25
30713;PMS7003;17465;47.934;33.430;2023-03-04T07:28:30;57.75;48.00;30.50
30713;PMS7003;17465;47.934;33.430;2023-03-04T07:31:12;35.75;31.75;19.00
30713;PMS7003;17465;47.934;33.430;2023-03-04T07:33:41;32.50;27.75;15.75
30713;PMS7003;17465;47.934;33.430;2023-03-04T07:36:12;37.25;34.25;18.75
30713;PMS7003;17465;47.934;33.430;2023-03-04T07:38:43;30.50;28.75;16.50
30713;PMS7003;17465;47.934;33.430;2023-03-04T07:41:15;36.50;33.00;15.75
30713;PMS7003;17465;47.934;33.430;2023-03-04T07:43:47;39.00;31.50;16.00
30713;PMS7003;17465;47.934;33.430;2023-03-04T07:46:17;30.50;24.50;15.25
30713;PMS7003;17465;47.934;33.430;2023-03-04T07:48:51;31.00;30.75;22.00
30713;PMS7003;17465;47.934;33.430;2023-03-04T07:51:24;39.00;34.25;20.50
30713;PMS7003;17465;47.934;33.430;2023-03-04T07:53:57;37.00;32.00;15.50
30713;PMS7003;17465;47.934;33.430;2023-03-04T07:56:29;40.25;37.50;20.75
30713;PMS7003;17465;47.934;33.430;2023-03-04T07:59:03;35.25;32.50;16.00
30713;PMS7003;17465;47.934;33.430;2023-03-04T08:01:34;89.00;77.75;46.00
30713;PMS7003;17465;47.934;33.430;2023-03-04T08:04:06;31.50;26.00;17.00
30713;PMS7003;17465;47.934;33.430;2023-03-04T08:06:36;43.25;38.25;20.75
30713;PMS7003;17465;47.934;33.430;2023-03-04T08:09:10;37.50;34.00;21.00
30713;PMS7003;17465;47.934;33.430;2023-03-04T08:11:41;41.25;36.75;21.00
30713;PMS7003;17465;47.934;33.430;2023-03-04T08:14:12;31.25;29.25;18.00
30713;PMS7003;17465;47.934;33.430;2023-03-04T08:16:43;36.25;32.75;19.75
30713;PMS7003;17465;47.934;33.430;2023-03-04T08:19:13;43.00;38.00;22.00
30713;PMS7003;17465;47.934;33.430;2023-03-04T08:21:44;38.00;33.25;19.50
30713;PMS7003;17465;47.934;33.430;2023-03-04T08:24:19;40.50;35.00;19.75
30713;PMS7003;17465;47.934;33.430;2023-03-04T08:26:49;37.00;33.50;17.75
30713;PMS7003;17465;47.934;33.430;2023-03-04T08:29:20;39.25;34.00;20.75
30713;PMS7003;17465;47.934;33.430;2023-03-04T08:31:54;35.50;33.50;19.00
30713;PMS7003;17465;47.934;33.430;2023-03-04T08:34:34;30.25;27.75;15.50
30713;PMS7003;17465;47.934;33.430;2023-03-04T08:37:01;34.75;32.00;19.75
30713;PMS7003;17465;47.934;33.430;2023-03-04T08:39:35;30.50;30.50;19.25
30713;PMS7003;17465;47.934;33.430;2023-03-04T08:42:06;28.50;28.25;18.25
30713;PMS7003;17465;47.934;33.430;2023-03-04T08:44:40;35.25;29.25;18.50
30713;PMS7003;17465;47.934;33.430;2023-03-04T08:47:09;27.75;25.25;16.50
30713;PMS7003;17465;47.934;33.430;2023-03-04T08:49:40;26.25;24.25;15.75
30713;PMS7003;17465;47.934;33.430;2023-03-04T08:52:11;30.00;28.75;16.50
30713;PMS7003;17465;47.934;33.430;2023-03-04T08:54:41;28.25;26.75;15.75
30713;PMS7003;17465;47.934;33.430;2023-03-04T08:57:12;22.25;22.25;10.75
30713;PMS7003;17465;47.934;33.430;2023-03-04T08:59:43;33.00;27.50;16.00
30713;PMS7003;17465;47.934;33.430;2023-03-04T09:02:15;58.25;48.00;29.50
30713;PMS7003;17465;47.934;33.430;2023-03-04T09:04:46;61.20;53.60;33.20
30713;PMS7003;17465;47.934;33.430;2023-03-04T09:07:16;22.25;22.00;12.25
30713;PMS7003;17465;47.934;33.430;2023-03-04T09:09:47;23.75;21.25;13.50
30713;PMS7003;17465;47.934;33.430;2023-03-04T09:12:19;22.25;22.25;10.50
30713;PMS7003;17465;47.934;33.430;2023-03-04T09:14:51;23.25;21.00;11.50
30713;PMS7003;17465;47.934;33.430;2023-03-04T09:17:24;23.25;18.25;11.00
30713;PMS7003;17465;47.934;33.430;2023-03-04T09:19:58;24.50;23.75;14.00
30713;PMS7003;17465;47.934;33.430;2023-03-04T09:22:33;24.00;20.25;12.50
30713;PMS7003;17465;47.934;33.430;2023-03-04T09:25:05;24.25;20.75;14.75
30713;PMS7003;17465;47.934;33.430;2023-03-04T09:27:40;23.00;19.25;10.25
30713;PMS7003;17465;47.934;33.430;2023-03-04T09:30:11;23.00;21.50;12.50
30713;PMS7003;17465;47.934;33.430;2023-03-04T09:32:45;21.00;20.25;12.25
30713;PMS7003;17465;47.934;33.430;2023-03-04T09:35:19;27.00;22.75;10.75
30713;PMS7003;17465;47.934;33.430;2023-03-04T09:37:50;26.75;25.00;14.75
30713;PMS7003;17465;47.934;33.430;2023-03-04T09:40:23;25.50;23.50;13.75
30713;PMS7003;17465;47.934;33.430;2023-03-04T09:42:59;26.50;24.50;14.75
30713;PMS7003;17465;47.934;33.430;2023-03-04T09:45:38;20.75;18.75;12.00
30713;PMS7003;17465;47.934;33.430;2023-03-04T09:48:12;30.75;26.00;14.25
30713;PMS7003;17465;47.934;33.430;2023-03-04T09:50:52;25.50;24.25;13.00
30713;PMS7003;17465;47.934;33.430;2023-03-04T09:53:31;24.75;20.75;12.00
30713;PMS7003;17465;47.934;33.430;2023-03-04T09:56:08;14.75;13.25;9.00
30713;PMS7003;17465;47.934;33.430;2023-03-04T09:58:48;28.00;26.50;15.75
30713;PMS7003;17465;47.934;33.430;2023-03-04T10:01:29;25.50;21.75;12.00
30713;PMS7003;17465;47.934;33.430;2023-03-04T10:04:02;21.50;20.75;13.00
30713;PMS7003;17465;47.934;33.430;2023-03-04T10:06:35;28.00;24.75;15.00
30713;PMS7003;17465;47.934;33.430;2023-03-04T10:09:12;25.00;18.50;7.50
30713;PMS7003;17465;47.934;33.430;2023-03-04T10:11:51;28.00;24.75;15.25
30713;PMS7003;17465;47.934;33.430;2023-03-04T10:20:16;27.75;26.00;14.25
30713;PMS7003;17465;47.934;33.430;2023-03-04T10:22:57;30.25;24.25;15.00
30713;PMS7003;17465;47.934;33.430;2023-03-04T10:25:30;23.50;19.75;10.75
30713;PMS7003;17465;47.934;33.430;2023-03-04T10:28:03;23.75;22.25;13.00
30713;PMS7003;17465;47.934;33.430;2023-03-04T10:33:37;26.25;24.00;11.00
30713;PMS7003;17465;47.934;33.430;2023-03-04T10:39:05;24.25;23.25;12.50
30713;PMS7003;17465;47.934;33.430;2023-03-04T10:41:44;31.50;30.25;19.50
30713;PMS7003;17465;47.934;33.430;2023-03-04T10:44:17;25.75;22.75;12.00
30713;PMS7003;17465;47.934;33.430;2023-03-04T10:46:48;15.25;15.25;10.25
30713;PMS7003;17465;47.934;33.430;2023-03-04T10:49:25;30.50;27.25;14.50
30713;PMS7003;17465;47.934;33.430;2023-03-04T10:54:49;26.50;22.50;13.50
30713;PMS7003;17465;47.934;33.430;2023-03-04T10:58:45;19.50;18.00;12.25
30713;PMS7003;17465;47.934;33.430;2023-03-04T11:02:50;22.00;20.75;11.00
30713;PMS7003;17465;47.934;33.430;2023-03-04T11:05:25;21.00;17.25;9.75
30713;PMS7003;17465;47.934;33.430;2023-03-04T11:07:58;19.00;17.00;7.75
30713;PMS7003;17465;47.934;33.430;2023-03-04T11:21:28;18.25;18.00;11.50
30713;PMS7003;17465;47.934;33.430;2023-03-04T11:26:50;24.25;18.50;12.75
30713;PMS7003;17465;47.934;33.430;2023-03-04T11:29:31;20.00;18.00;10.25
30713;PMS7003;17465;47.934;33.430;2023-03-04T11:32:05;13.25;11.50;7.25
30713;PMS7003;17465;47.934;33.430;2023-03-04T11:40:15;32.50;26.25;14.00
30713;PMS7003;17465;47.934;33.430;2023-03-04T11:43:05;17.25;12.25;3.75
30713;PMS7003;17465;47.934;33.430;2023-03-04T11:48:48;20.25;17.50;11.25
30713;PMS7003;17465;47.934;33.430;2023-03-04T11:51:32;22.50;20.25;11.25
30713;PMS7003;17465;47.934;33.430;2023-03-04T11:54:16;15.75;14.00;6.00
30713;PMS7003;17465;47.934;33.430;2023-03-04T11:56:55;19.50;19.25;11.25
30713;PMS7003;17465;47.934;33.430;2023-03-04T12:02:19;19.25;19.25;8.50
30713;PMS7003;17465;47.934;33.430;2023-03-04T12:07:38;11.25;11.25;6.25
30713;PMS7003;17465;47.934;33.430;2023-03-04T12:10:19;22.50;18.75;13.00
30713;PMS7003;17465;47.934;33.430;2023-03-04T12:20:58;9.00;9.00;7.50
30713;PMS7003;17465;47.934;33.430;2023-03-04T12:23:42;21.00;17.50;10.75
30713;PMS7003;17465;47.934;33.430;2023-03-04T12:32:25;19.00;17.00;8.00
30713;PMS7003;17465;47.934;33.430;2023-03-04T12:35:18;21.50;19.25;10.50
30713;PMS7003;17465;47.934;33.430;2023-03-04T12:52:24;16.75;15.75;4.50
30713;PMS7003;17465;47.934;33.430;2023-03-04T12:54:57;19.75;16.25;8.75
30713;PMS7003;17465;47.934;33.430;2023-03-04T12:57:32;20.75;17.00;11.50
30713;PMS7003;17465;47.934;33.430;2023-03-04T13:00:19;20.00;18.00;8.25
30713;PMS7003;17465;47.934;33.430;2023-03-04T13:05:51;13.25;13.00;7.50
30713;PMS7003;17465;47.934;33.430;2023-03-04T13:08:28;17.00;14.25;10.75
30713;PMS7003;17465;47.934;33.430;2023-03-04T13:14:07;16.00;16.00;9.25
30713;PMS7003;17465;47.934;33.430;2023-03-04T13:16:46;18.00;17.75;11.75
30713;PMS7003;17465;47.934;33.430;2023-03-04T13:19:56;16.75;15.00;6.75
30713;PMS7003;17465;47.934;33.430;2023-03-04T13:22:28;16.00;15.50;7.75
30713;PMS7003;17465;47.934;33.430;2023-03-04T13:43:40;20.25;17.75;12.25
30713;PMS7003;17465;47.934;33.430;2023-03-04T13:54:15;12.75;11.00;3.00
30713;PMS7003;17465;47.934;33.430;2023-03-04T13:59:46;21.00;20.75;12.00
30713;PMS7003;17465;47.934;33.430;2023-03-04T14:02:16;18.00;16.50;9.50
30713;PMS7003;17465;47.934;33.430;2023-03-04T14:04:56;20.25;19.00;10.50
30713;PMS7003;17465;47.934;33.430;2023-03-04T14:07:29;17.25;17.25;7.50
30713;PMS7003;17465;47.934;33.430;2023-03-04T14:10:07;13.00;11.25;4.25
30713;PMS7003;17465;47.934;33.430;2023-03-04T14:12:44;18.25;17.75;11.00
30713;PMS7003;17465;47.934;33.430;2023-03-04T14:15:23;18.25;14.25;8.25
30713;PMS7003;17465;47.934;33.430;2023-03-04T14:18:03;19.50;17.75;9.00
30713;PMS7003;17465;47.934;33.430;2023-03-04T14:20:38;31.75;29.50;20.25
30713;PMS7003;17465;47.934;33.430;2023-03-04T14:26:09;22.75;22.00;13.50
30713;PMS7003;17465;47.934;33.430;2023-03-04T14:31:20;22.75;22.75;13.25
30713;PMS7003;17465;47.934;33.430;2023-03-04T14:33:53;20.25;19.50;8.00
30713;PMS7003;17465;47.934;33.430;2023-03-04T14:36:25;28.25;22.50;12.25
30713;PMS7003;17465;47.934;33.430;2023-03-04T14:39:03;21.75;17.00;8.50
30713;PMS7003;17465;47.934;33.430;2023-03-04T14:41:35;23.00;17.00;9.00
30713;PMS7003;17465;47.934;33.430;2023-03-04T14:46:59;15.75;15.75;8.75
30713;PMS7003;17465;47.934;33.430;2023-03-04T14:49:33;1.50;0.00;0.00
30713;PMS7003;17465;47.934;33.430;2023-03-04T14:52:05;18.50;18.00;11.25
30713;PMS7003;17465;47.934;33.430;2023-03-04T14:54:39;17.25;16.75;9.00
30713;PMS7003;17465;47.934;33.430;2023-03-04T14:57:23;23.25;23.25;15.25
30713;PMS7003;17465;47.934;33.430;2023-03-04T14:59:56;22.75;22.50;15.50
30713;PMS7003;17465;47.934;33.430;2023-03-04T15:02:39;45.50;38.00;26.75
30713;PMS7003;17465;47.934;33.430;2023-03-04T15:05:18;23.75;22.75;13.25
30713;PMS7003;17465;47.934;33.430;2023-03-04T15:07:55;21.25;19.50;10.75
30713;PMS7003;17465;47.934;33.430;2023-03-04T15:10:33;23.25;20.75;11.25
30713;PMS7003;17465;47.934;33.430;2023-03-04T15:13:05;18.00;15.75;10.00
30713;PMS7003;17465;47.934;33.430;2023-03-04T15:15:42;21.50;19.25;10.00
30713;PMS7003;17465;47.934;33.430;2023-03-04T15:18:32;24.50;23.00;12.25
30713;PMS7003;17465;47.934;33.430;2023-03-04T15:21:04;24.25;22.75;12.25
30713;PMS7003;17465;47.934;33.430;2023-03-04T15:23:37;17.50;17.25;10.75
30713;PMS7003;17465;47.934;33.430;2023-03-04T15:26:08;21.25;18.50;9.00
30713;PMS7003;17465;47.934;33.430;2023-03-04T15:28:40;19.25;18.75;11.00
30713;PMS7003;17465;47.934;33.430;2023-03-04T15:31:18;18.25;18.00;9.50
30713;PMS7003;17465;47.934;33.430;2023-03-04T15:33:51;21.75;21.75;12.25
30713;PMS7003;17465;47.934;33.430;2023-03-04T15:36:21;20.25;17.25;9.75
30713;PMS7003;17465;47.934;33.430;2023-03-04T15:38:53;15.75;13.00;9.00
30713;PMS7003;17465;47.934;33.430;2023-03-04T15:41:25;16.50;15.75;9.75
30713;PMS7003;17465;47.934;33.430;2023-03-04T15:43:57;20.25;17.00;11.00
30713;PMS7003;17465;47.934;33.430;2023-03-04T15:46:27;17.00;17.00;10.50
30713;PMS7003;17465;47.934;33.430;2023-03-04T15:49:01;26.00;23.00;13.50
30713;PMS7003;17465;47.934;33.430;2023-03-04T15:51:33;16.25;15.75;8.00
30713;PMS7003;17465;47.934;33.430;2023-03-04T15:54:06;9.25;8.50;5.00
30713;PMS7003;17465;47.934;33.430;2023-03-04T15:56:40;24.75;19.50;11.75
30713;PMS7003;17465;47.934;33.430;2023-03-04T15:59:13;23.00;20.25;13.50
30713;PMS7003;17465;47.934;33.430;2023-03-04T16:01:45;34.75;28.50;17.00
30713;PMS7003;17465;47.934;33.430;2023-03-04T16:04:19;30.50;29.25;18.25
30713;PMS7003;17465;47.934;33.430;2023-03-04T16:06:49;28.00;26.25;15.25